Time;durP1;ratioP1;P1;durP2;ratioP2;P2;SDS_P1;SDS_P2;PMS_P1;PMS_P2;Temp;Humidity;BMP_temperature;BMP_pressure;BME280_temperature;BME280_humidity;BME280_pressure;Samples;Min_cycle;Max_cycle;Signal;HPM_P1;HPM_P2
2022/08/18 00:00:32;;;;;;;18.70;11.18;;;19.30;99.90;;;;;;5045093;28;20040;-60
2022/08/18 00:03:02;;;;;;;21.98;11.50;;;19.30;99.90;;;;;;5073186;28;20355;-60
2022/08/18 00:05:28;;;;;;;23.10;10.98;;;19.20;99.90;;;;;;5073350;28;20064;-60
2022/08/18 00:07:54;;;;;;;22.38;11.15;;;19.20;99.90;;;;;;5069541;28;20144;-59
2022/08/18 00:10:19;;;;;;;28.60;10.85;;;19.30;99.90;;;;;;5069797;28;20043;-60
2022/08/18 00:12:45;;;;;;;25.42;11.35;;;19.30;99.90;;;;;;5071814;28;20497;-59
2022/08/18 00:15:13;;;;;;;19.92;10.95;;;19.30;99.90;;;;;;5072909;28;20141;-59
2022/08/18 00:17:39;;;;;;;18.33;10.80;;;19.30;99.90;;;;;;5071222;28;20048;-60
2022/08/18 00:20:09;;;;;;;25.50;12.05;;;19.30;99.90;;;;;;5066685;28;20051;-60
2022/08/18 00:22:36;;;;;;;22.85;11.50;;;19.30;99.90;;;;;;5052668;28;20037;-60
2022/08/18 00:25:02;;;;;;;16.42;10.80;;;19.30;99.90;;;;;;5063961;28;20048;-60
2022/08/18 00:27:29;;;;;;;24.60;11.60;;;19.30;99.90;;;;;;5072185;28;20097;-60
2022/08/18 00:29:58;;;;;;;23.80;11.35;;;19.30;99.90;;;;;;5060761;28;20036;-59
2022/08/18 00:32:32;;;;;;;20.60;11.13;;;19.30;99.90;;;;;;5072656;28;20040;-60
2022/08/18 00:35:08;;;;;;;21.30;10.95;;;19.30;99.90;;;;;;5072521;28;20048;-60
2022/08/18 00:37:33;;;;;;;20.05;11.75;;;19.30;99.90;;;;;;5072108;28;20052;-60
2022/08/18 00:39:59;;;;;;;26.48;11.10;;;19.40;99.90;;;;;;5058280;28;20419;-60
2022/08/18 00:42:27;;;;;;;17.52;11.32;;;19.30;99.90;;;;;;5072519;28;20040;-61
2022/08/18 00:44:53;;;;;;;24.02;11.48;;;19.30;99.90;;;;;;5071974;28;20041;-60
2022/08/18 00:47:19;;;;;;;17.10;10.93;;;19.30;99.90;;;;;;5071792;28;20467;-60
2022/08/18 00:49:50;;;;;;;18.92;10.70;;;19.30;99.90;;;;;;5057069;28;20041;-61
2022/08/18 00:52:16;;;;;;;17.75;11.07;;;19.30;99.90;;;;;;5072286;28;20072;-60
2022/08/18 00:54:44;;;;;;;19.20;11.35;;;19.30;99.90;;;;;;5071794;28;20091;-60
2022/08/18 00:57:11;;;;;;;18.92;11.38;;;19.40;99.90;;;;;;5072085;28;20127;-60
2022/08/18 01:00:10;;;;;;;20.63;11.68;;;19.40;99.90;;;;;;5069497;28;20378;-59
2022/08/18 01:02:43;;;;;;;25.98;12.00;;;19.40;99.90;;;;;;5062693;28;20044;-60
2022/08/18 01:05:29;;;;;;;19.05;11.38;;;19.50;99.90;;;;;;5068344;28;20043;-59
2022/08/18 01:07:55;;;;;;;24.65;11.80;;;19.40;99.90;;;;;;5060408;28;20232;-59
2022/08/18 01:10:22;;;;;;;19.95;11.07;;;19.40;99.90;;;;;;5054972;28;20041;-59
2022/08/18 01:12:53;;;;;;;21.13;11.38;;;19.30;99.90;;;;;;5072145;28;20033;-60
2022/08/18 01:15:21;;;;;;;18.92;11.27;;;19.40;99.90;;;;;;5057818;28;20052;-59
2022/08/18 01:23:21;;;;;;;21.55;10.77;;;19.40;99.90;;;;;;5071703;28;20133;-60
2022/08/18 01:26:05;;;;;;;19.73;12.10;;;19.40;99.90;;;;;;5067123;28;20079;-60
2022/08/18 01:28:37;;;;;;;20.97;11.40;;;19.40;99.90;;;;;;5062788;28;20131;-59
2022/08/18 01:31:05;;;;;;;21.05;11.68;;;19.40;99.90;;;;;;5067403;28;20115;-59
2022/08/18 01:33:38;;;;;;;23.17;12.13;;;19.40;99.90;;;;;;5071665;28;20441;-60
2022/08/18 01:36:06;;;;;;;24.50;12.32;;;19.30;99.90;;;;;;5071048;28;20403;-59
2022/08/18 01:38:32;;;;;;;19.70;11.02;;;19.30;99.90;;;;;;5052128;28;20354;-59
2022/08/18 01:40:58;;;;;;;21.05;12.00;;;19.30;99.90;;;;;;5052074;28;20045;-60
2022/08/18 01:43:24;;;;;;;19.83;11.65;;;19.30;99.90;;;;;;5070140;28;20036;-59
2022/08/18 01:45:50;;;;;;;19.88;11.60;;;19.30;99.90;;;;;;5071635;28;20144;-59
2022/08/18 01:48:16;;;;;;;19.27;11.43;;;19.30;99.90;;;;;;5067817;28;20183;-60
2022/08/18 01:50:43;;;;;;;16.67;11.80;;;19.30;99.90;;;;;;5060609;28;20044;-60
2022/08/18 01:53:10;;;;;;;18.00;11.50;;;19.30;99.90;;;;;;5071628;28;20044;-60
2022/08/18 01:55:39;;;;;;;20.55;12.50;;;19.40;99.90;;;;;;5071635;28;20047;-60
2022/08/18 01:58:06;;;;;;;19.98;12.05;;;19.30;99.90;;;;;;5067893;28;20044;-60
2022/08/18 02:00:33;;;;;;;16.45;12.02;;;19.40;99.90;;;;;;5065167;28;20098;-59
2022/08/18 02:03:00;;;;;;;24.77;13.32;;;19.30;99.90;;;;;;5064177;28;20053;-60
2022/08/18 02:05:47;;;;;;;17.60;12.85;;;19.20;99.90;;;;;;5071648;28;20094;-59
2022/08/18 02:08:14;;;;;;;17.40;11.48;;;19.10;99.90;;;;;;5070120;28;20506;-60
2022/08/18 02:10:41;;;;;;;17.73;12.55;;;19.20;99.90;;;;;;5075128;28;20039;-59
2022/08/18 02:13:07;;;;;;;19.90;12.40;;;19.20;99.90;;;;;;5075266;28;20425;-59
2022/08/18 02:15:34;;;;;;;23.20;12.60;;;19.20;99.90;;;;;;5071327;28;20033;-60
2022/08/18 02:18:00;;;;;;;17.73;12.05;;;19.30;99.90;;;;;;5063614;28;20066;-60
2022/08/18 02:20:26;;;;;;;20.35;11.30;;;19.30;99.90;;;;;;5069417;28;20044;-59
2022/08/18 02:22:52;;;;;;;20.85;13.13;;;19.30;99.90;;;;;;5055092;28;20045;-61
2022/08/18 02:25:18;;;;;;;19.42;12.00;;;19.30;99.90;;;;;;5068542;28;20530;-60
2022/08/18 02:27:44;;;;;;;23.67;12.10;;;19.40;99.90;;;;;;5060528;28;20069;-59
2022/08/18 02:30:13;;;;;;;18.92;12.32;;;19.30;99.90;;;;;;5063899;28;20040;-60
2022/08/18 02:32:40;;;;;;;18.13;12.38;;;19.40;99.90;;;;;;5074291;28;20041;-60
2022/08/18 02:35:07;;;;;;;22.30;12.90;;;19.40;99.90;;;;;;5061636;28;20499;-60
2022/08/18 02:37:33;;;;;;;21.80;12.90;;;19.30;99.90;;;;;;5074280;28;20048;-59
2022/08/18 02:39:59;;;;;;;17.70;12.77;;;19.30;99.90;;;;;;5062178;28;20036;-60
2022/08/18 02:42:24;;;;;;;22.40;13.55;;;19.30;99.90;;;;;;5063846;28;20480;-60
2022/08/18 02:44:50;;;;;;;20.98;13.65;;;19.20;99.90;;;;;;5068841;28;20041;-60
2022/08/18 02:47:20;;;;;;;20.23;13.43;;;19.20;99.90;;;;;;5063533;28;20101;-59
2022/08/18 02:49:46;;;;;;;20.67;13.02;;;19.20;99.90;;;;;;5060253;28;20478;-60
2022/08/18 02:52:11;;;;;;;18.42;13.40;;;19.10;99.90;;;;;;5074541;28;20048;-60
2022/08/18 02:54:37;;;;;;;27.27;14.35;;;19.20;99.90;;;;;;5061173;28;20032;-59
2022/08/18 02:57:11;;;;;;;25.83;14.82;;;19.20;99.90;;;;;;5073537;28;20036;-59
2022/08/18 02:59:39;;;;;;;22.70;14.45;;;19.20;99.90;;;;;;5071777;28;20514;-59
2022/08/18 03:02:06;;;;;;;25.05;15.30;;;19.20;99.90;;;;;;5074390;28;20357;-59
2022/08/18 03:04:32;;;;;;;27.83;15.75;;;19.20;99.90;;;;;;5063218;28;20048;-59
2022/08/18 03:07:03;;;;;;;29.48;15.48;;;19.10;99.90;;;;;;5065034;28;20140;-60
2022/08/18 03:09:30;;;;;;;25.52;15.07;;;19.10;99.90;;;;;;5047301;28;20469;-61
2022/08/18 03:11:57;;;;;;;23.63;15.13;;;19.00;99.90;;;;;;5056292;28;20070;-60
2022/08/18 03:14:23;;;;;;;21.23;14.43;;;19.10;99.90;;;;;;5074139;28;20040;-59
2022/08/18 03:16:48;;;;;;;26.00;14.65;;;19.00;99.90;;;;;;5074114;28;20123;-60
2022/08/18 03:19:15;;;;;;;25.98;15.00;;;19.10;99.90;;;;;;5068569;28;20599;-59
2022/08/18 03:21:45;;;;;;;23.90;14.52;;;19.00;99.90;;;;;;5073682;28;20389;-59
2022/08/18 03:24:12;;;;;;;25.92;15.90;;;19.10;99.90;;;;;;5064323;28;20050;-60
2022/08/18 03:26:44;;;;;;;25.45;14.80;;;19.00;99.90;;;;;;5074015;28;20247;-60
2022/08/18 03:29:11;;;;;;;24.67;15.13;;;19.00;99.90;;;;;;5063063;28;20055;-60
2022/08/18 03:31:37;;;;;;;22.80;14.70;;;19.00;99.90;;;;;;5045873;28;20068;-60
2022/08/18 03:34:04;;;;;;;19.40;13.60;;;19.00;99.90;;;;;;5074132;28;20041;-59
2022/08/18 03:36:32;;;;;;;23.52;14.70;;;19.00;99.90;;;;;;5073521;28;20354;-61
2022/08/18 03:39:01;;;;;;;19.13;14.30;;;18.90;99.90;;;;;;5064363;28;20077;-59
2022/08/18 03:41:28;;;;;;;20.65;14.73;;;19.00;99.90;;;;;;5056802;28;20039;-59
2022/08/18 03:43:54;;;;;;;21.70;14.32;;;19.10;99.90;;;;;;5073721;28;20037;-60
2022/08/18 03:46:21;;;;;;;25.02;14.70;;;19.00;99.90;;;;;;5072013;28;20055;-61
2022/08/18 03:48:48;;;;;;;24.20;15.20;;;18.90;99.90;;;;;;5053454;28;20052;-60
2022/08/18 03:51:20;;;;;;;25.27;15.05;;;19.00;99.90;;;;;;5067114;28;20341;-60
2022/08/18 03:53:48;;;;;;;22.48;14.82;;;19.00;99.90;;;;;;5066795;28;20349;-59
2022/08/18 03:56:20;;;;;;;21.20;14.35;;;19.00;99.90;;;;;;5064949;28;20052;-60
2022/08/18 03:58:57;;;;;;;21.67;15.50;;;19.00;99.90;;;;;;5071518;28;20065;-59
2022/08/18 04:01:26;;;;;;;24.63;14.15;;;19.00;99.90;;;;;;5073075;28;20044;-59
2022/08/18 04:03:55;;;;;;;19.95;13.95;;;19.00;99.90;;;;;;5073035;28;20079;-59
2022/08/18 04:06:28;;;;;;;20.27;14.85;;;19.00;99.90;;;;;;5060850;28;20045;-60
2022/08/18 04:08:55;;;;;;;24.13;15.32;;;19.00;99.90;;;;;;5068838;28;20064;-59
2022/08/18 04:11:22;;;;;;;24.92;15.95;;;19.00;99.90;;;;;;5073049;28;20123;-60
2022/08/18 04:13:48;;;;;;;27.77;15.70;;;19.00;99.90;;;;;;5069504;28;20099;-60
2022/08/18 04:16:14;;;;;;;26.48;15.05;;;19.00;99.90;;;;;;5053071;28;20041;-59
2022/08/18 04:18:39;;;;;;;23.58;14.82;;;19.00;99.90;;;;;;5061921;28;20044;-60
2022/08/18 04:21:08;;;;;;;26.08;15.43;;;19.00;99.90;;;;;;5060480;28;20051;-60
2022/08/18 04:23:37;;;;;;;26.92;15.75;;;19.00;99.90;;;;;;5072847;28;20036;-60
2022/08/18 04:26:05;;;;;;;26.70;15.07;;;19.10;99.90;;;;;;5070030;28;20063;-59
2022/08/18 04:28:31;;;;;;;20.77;14.93;;;19.00;99.90;;;;;;5052531;28;20048;-59
2022/08/18 04:30:58;;;;;;;25.00;16.27;;;19.00;99.90;;;;;;5066835;28;20040;-59
2022/08/18 04:33:27;;;;;;;25.83;15.55;;;19.00;99.90;;;;;;5072826;28;20036;-59
2022/08/18 04:35:54;;;;;;;23.88;15.45;;;19.10;99.90;;;;;;5072461;28;20461;-59
2022/08/18 04:38:21;;;;;;;22.08;13.98;;;19.00;99.90;;;;;;5069133;28;20106;-60
2022/08/18 04:40:47;;;;;;;23.90;14.25;;;19.10;99.90;;;;;;5064443;28;20048;-60
2022/08/18 04:43:16;;;;;;;22.92;15.80;;;19.00;99.90;;;;;;5072286;28;20028;-60
2022/08/18 04:45:44;;;;;;;21.65;15.13;;;19.10;99.90;;;;;;5072591;28;20051;-60
2022/08/18 04:48:10;;;;;;;20.45;15.23;;;19.10;99.90;;;;;;5056926;28;20041;-61
2022/08/18 04:50:37;;;;;;;21.48;15.07;;;19.10;99.90;;;;;;5052602;28;20040;-60
2022/08/18 04:55:50;;;;;;;21.17;15.43;;;19.10;99.90;;;;;;5072539;28;20115;-60
2022/08/18 04:58:17;;;;;;;23.52;15.18;;;19.00;99.90;;;;;;5069353;28;20374;-59
2022/08/18 05:00:44;;;;;;;24.23;15.10;;;19.00;99.90;;;;;;5060136;28;20394;-61
2022/08/18 05:03:10;;;;;;;24.70;15.25;;;19.00;99.90;;;;;;5058360;28;20071;-60
2022/08/18 05:05:36;;;;;;;17.70;14.00;;;19.00;99.90;;;;;;5043511;28;20047;-60
2022/08/18 05:08:02;;;;;;;19.98;14.93;;;19.00;99.90;;;;;;5071921;28;20032;-60
2022/08/18 05:10:28;;;;;;;20.90;14.77;;;19.00;99.90;;;;;;5070144;28;20028;-59
2022/08/18 05:12:54;;;;;;;21.15;14.63;;;19.00;99.90;;;;;;5072246;28;20044;-59
2022/08/18 05:15:20;;;;;;;22.45;14.02;;;18.90;99.90;;;;;;5069797;28;20579;-59
2022/08/18 05:17:46;;;;;;;21.80;14.20;;;19.00;99.90;;;;;;5059926;28;20036;-59
2022/08/18 05:20:12;;;;;;;20.08;14.10;;;19.00;99.90;;;;;;5068094;28;20422;-59
2022/08/18 05:22:39;;;;;;;21.15;13.98;;;18.90;99.90;;;;;;5057900;28;20365;-59
2022/08/18 05:25:09;;;;;;;20.20;14.32;;;19.00;99.90;;;;;;5067425;28;20049;-59
2022/08/18 05:27:36;;;;;;;20.48;14.18;;;19.00;99.90;;;;;;5057591;28;20098;-60
2022/08/18 05:30:04;;;;;;;23.33;14.68;;;19.00;99.90;;;;;;5062309;28;20052;-60
2022/08/18 05:32:33;;;;;;;18.38;14.13;;;19.00;99.90;;;;;;5070650;28;20051;-59
2022/08/18 05:35:07;;;;;;;21.23;14.02;;;19.00;99.90;;;;;;5051885;28;20068;-60
2022/08/18 05:37:53;;;;;;;21.58;13.40;;;19.00;99.90;;;;;;5064116;28;20033;-59
2022/08/18 05:40:21;;;;;;;20.25;14.05;;;19.00;99.90;;;;;;5058084;28;20044;-60
2022/08/18 05:42:47;;;;;;;18.50;13.65;;;19.10;99.90;;;;;;5075398;28;20119;-59
2022/08/18 05:45:17;;;;;;;18.50;12.80;;;19.00;99.90;;;;;;5074954;28;20533;-59
2022/08/18 05:47:43;;;;;;;15.38;12.60;;;19.10;99.90;;;;;;5062943;28;20041;-59
2022/08/18 05:50:18;;;;;;;19.17;11.68;;;19.10;99.90;;;;;;5057134;28;20037;-59
2022/08/18 05:52:54;;;;;;;18.30;11.73;;;19.20;99.90;;;;;;5055759;28;20072;-60
2022/08/18 05:58:41;;;;;;;15.70;10.68;;;19.30;99.90;;;;;;5069678;28;20040;-59
2022/08/18 06:01:16;;;;;;;19.15;11.57;;;19.40;99.90;;;;;;5066718;28;20410;-59
2022/08/18 06:03:41;;;;;;;18.60;11.77;;;19.40;99.90;;;;;;5071353;28;20044;-59
2022/08/18 06:06:12;;;;;;;20.52;12.20;;;19.40;99.90;;;;;;5056040;28;20036;-59
2022/08/18 06:08:44;;;;;;;17.73;10.80;;;19.40;99.90;;;;;;5067050;28;20041;-60
2022/08/18 06:11:10;;;;;;;15.60;10.82;;;19.50;99.90;;;;;;5047779;28;20538;-59
2022/08/18 06:13:39;;;;;;;17.65;11.75;;;19.50;99.90;;;;;;5075362;28;20119;-59
2022/08/18 06:16:24;;;;;;;18.88;10.65;;;19.50;99.90;;;;;;5074844;28;20041;-59
2022/08/18 06:19:02;;;;;;;19.48;10.45;;;19.50;99.90;;;;;;5060677;28;20045;-59
2022/08/18 06:21:33;;;;;;;16.92;10.35;;;19.50;99.90;;;;;;5075195;28;20428;-60
2022/08/18 06:24:33;;;;;;;15.82;10.60;;;19.50;99.90;;;;;;5074243;28;20419;-60
2022/08/18 06:27:05;;;;;;;13.30;10.52;;;19.60;99.90;;;;;;5075054;28;20073;-60
2022/08/18 06:29:46;;;;;;;18.42;10.93;;;19.60;99.90;;;;;;5065703;28;20478;-60
2022/08/18 06:32:34;;;;;;;14.38;10.40;;;19.60;99.90;;;;;;5064200;28;20120;-59
2022/08/18 06:35:13;;;;;;;15.07;10.68;;;19.70;99.90;;;;;;5069252;28;20073;-60
2022/08/18 06:38:37;;;;;;;17.50;10.80;;;19.70;99.90;;;;;;5067290;28;20091;-60
2022/08/18 06:41:19;;;;;;;17.00;11.13;;;19.80;99.90;;;;;;5063269;28;20395;-61
2022/08/18 06:44:07;;;;;;;17.58;10.98;;;20.00;99.90;;;;;;5075110;28;20044;-60
2022/08/18 06:47:02;;;;;;;16.35;10.60;;;20.20;99.90;;;;;;5071855;28;20060;-60
2022/08/18 06:49:35;;;;;;;15.15;10.02;;;20.60;99.90;;;;;;5056996;28;20444;-60
2022/08/18 06:52:23;;;;;;;17.67;10.45;;;20.90;99.90;;;;;;5046664;28;20048;-61
2022/08/18 06:54:51;;;;;;;16.77;10.35;;;21.20;99.90;;;;;;5074370;28;20098;-60
2022/08/18 06:57:53;;;;;;;14.00;10.13;;;21.40;99.90;;;;;;5074097;28;20487;-60
2022/08/18 07:00:26;;;;;;;13.50;9.55;;;22.00;99.90;;;;;;5047660;28;20048;-60
2022/08/18 07:02:58;;;;;;;15.45;10.65;;;22.70;99.90;;;;;;5074765;28;20086;-61
2022/08/18 07:05:30;;;;;;;13.10;9.70;;;23.10;99.90;;;;;;5074185;28;20441;-60
2022/08/18 07:08:24;;;;;;;11.98;9.13;;;23.50;99.90;;;;;;5074198;28;20036;-60
2022/08/18 07:10:51;;;;;;;13.48;9.15;;;23.30;99.90;;;;;;5074435;28;20106;-60
2022/08/18 07:13:26;;;;;;;14.45;8.77;;;23.30;99.90;;;;;;5072930;28;20043;-61
2022/08/18 07:16:13;;;;;;;12.15;8.82;;;23.50;99.90;;;;;;5074039;28;20093;-61
2022/08/18 07:18:39;;;;;;;15.43;9.43;;;23.50;99.90;;;;;;5069196;28;20037;-60
2022/08/18 07:21:05;;;;;;;14.00;8.85;;;23.30;99.90;;;;;;5060913;28;20094;-60
2022/08/18 07:23:39;;;;;;;14.23;9.18;;;23.20;99.90;;;;;;5060328;28;20410;-60
2022/08/18 07:26:09;;;;;;;14.32;8.38;;;23.00;99.90;;;;;;5066206;28;20055;-60
2022/08/18 07:28:40;;;;;;;12.80;7.95;;;23.00;99.90;;;;;;5069491;28;20064;-61
2022/08/18 07:31:25;;;;;;;16.08;7.95;;;22.80;99.90;;;;;;5054261;28;20049;-61
2022/08/18 07:33:57;;;;;;;12.57;7.22;;;22.70;99.90;;;;;;5073388;28;20503;-60
2022/08/18 07:36:30;;;;;;;14.45;7.20;;;22.50;99.90;;;;;;5072940;28;20414;-60
2022/08/18 07:39:13;;;;;;;11.20;7.57;;;22.40;99.90;;;;;;5066779;28;20095;-60
2022/08/18 07:41:48;;;;;;;13.60;7.63;;;22.10;99.90;;;;;;5070896;28;20132;-60
2022/08/18 07:44:20;;;;;;;15.38;7.25;;;21.90;99.90;;;;;;5073084;28;20509;-60
2022/08/18 07:47:00;;;;;;;12.63;7.78;;;21.90;99.90;;;;;;5072681;28;20120;-60
2022/08/18 07:49:32;;;;;;;12.10;7.22;;;21.80;99.90;;;;;;5062833;28;20339;-61
2022/08/18 07:52:15;;;;;;;10.52;7.05;;;21.90;99.90;;;;;;5072608;28;20098;-60
2022/08/18 07:54:52;;;;;;;9.95;6.97;;;22.10;99.90;;;;;;5073144;28;20133;-61
2022/08/18 07:57:27;;;;;;;12.02;7.60;;;22.30;99.90;;;;;;5047724;28;20166;-60
2022/08/18 08:00:22;;;;;;;11.02;6.82;;;22.50;99.90;;;;;;5059273;28;20124;-60
2022/08/18 08:03:10;;;;;;;9.02;6.65;;;22.60;99.90;;;;;;5072746;28;20109;-60
2022/08/18 08:05:47;;;;;;;11.02;6.90;;;22.70;99.90;;;;;;5071490;28;20135;-60
2022/08/18 08:08:12;;;;;;;11.70;7.32;;;22.80;99.90;;;;;;5071587;28;20398;-60
2022/08/18 08:11:20;;;;;;;10.57;6.50;;;22.60;99.90;;;;;;5057583;28;20051;-61
2022/08/18 08:14:05;;;;;;;10.70;5.82;;;22.50;99.90;;;;;;5061832;28;20427;-60
2022/08/18 08:16:50;;;;;;;10.63;5.88;;;22.50;99.90;;;;;;5072031;28;20093;-60
2022/08/18 08:20:16;;;;;;;9.50;4.75;;;22.70;99.90;;;;;;5069629;28;20079;-60
2022/08/18 08:23:18;;;;;;;9.88;5.03;;;22.70;99.90;;;;;;5062131;28;20362;-60
2022/08/18 08:26:16;;;;;;;9.57;5.13;;;22.70;99.90;;;;;;5071636;28;20111;-60
2022/08/18 08:29:05;;;;;;;8.23;4.60;;;22.80;99.90;;;;;;5067639;28;20041;-61
2022/08/18 08:31:58;;;;;;;8.70;4.72;;;22.90;99.90;;;;;;5070662;28;20111;-61
2022/08/18 08:34:44;;;;;;;7.88;4.03;;;23.20;99.90;;;;;;5068597;28;20048;-60
2022/08/18 08:37:18;;;;;;;7.15;4.03;;;23.30;99.90;;;;;;5071511;28;20157;-61
2022/08/18 08:40:04;;;;;;;7.72;3.72;;;23.40;99.90;;;;;;5061743;28;20041;-60
2022/08/18 08:42:40;;;;;;;5.35;3.42;;;23.70;99.90;;;;;;5071788;28;20363;-60
2022/08/18 08:45:12;;;;;;;6.65;3.03;;;23.80;99.90;;;;;;5070990;28;20044;-61
2022/08/18 08:47:41;;;;;;;6.22;2.97;;;24.00;99.90;;;;;;5071327;28;20044;-61
2022/08/18 08:50:15;;;;;;;5.80;3.20;;;24.10;99.90;;;;;;5059840;28;20103;-60
2022/08/18 08:52:46;;;;;;;5.88;3.30;;;24.30;99.90;;;;;;5070754;28;20299;-61
2022/08/18 08:55:36;;;;;;;6.57;3.00;;;24.20;99.90;;;;;;5071886;28;20036;-61
2022/08/18 08:58:20;;;;;;;5.50;3.10;;;24.20;99.90;;;;;;5071542;28;20199;-61
2022/08/18 09:00:49;;;;;;;6.07;2.85;;;23.80;99.90;;;;;;5059764;28;20040;-61
2022/08/18 09:03:27;;;;;;;7.07;2.83;;;23.70;99.90;;;;;;5071537;28;20051;-60
2022/08/18 09:05:58;;;;;;;8.30;3.28;;;23.70;99.90;;;;;;5071745;28;20048;-60
2022/08/18 09:09:10;;;;;;;6.57;3.30;;;23.60;99.90;;;;;;5069724;28;20040;-60
2022/08/18 09:11:52;;;;;;;6.43;3.30;;;23.30;99.90;;;;;;5064987;28;20094;-60
2022/08/18 09:14:31;;;;;;;7.63;3.83;;;23.30;99.90;;;;;;5071396;28;20494;-61
2022/08/18 09:17:12;;;;;;;6.80;2.70;;;23.20;99.90;;;;;;5070651;28;20443;-61
2022/08/18 09:20:11;;;;;;;6.32;2.70;;;23.00;99.90;;;;;;5069292;28;20102;-61
2022/08/18 09:22:50;;;;;;;3.85;2.03;;;22.90;99.90;;;;;;5057190;28;20102;-61
2022/08/18 09:25:36;;;;;;;5.28;2.30;;;23.00;99.90;;;;;;5070932;28;20110;-61
2022/08/18 09:28:18;;;;;;;4.80;2.13;;;23.30;99.90;;;;;;5070142;28;20080;-59
2022/08/18 09:31:12;;;;;;;6.05;2.45;;;23.40;99.90;;;;;;5063527;28;20098;-60
2022/08/18 09:33:47;;;;;;;3.65;2.20;;;23.50;99.90;;;;;;5071038;28;20397;-60
2022/08/18 09:36:50;;;;;;;8.82;2.92;;;23.40;99.90;;;;;;5070416;28;20066;-60
2022/08/18 09:42:29;;;;;;;5.88;2.20;;;23.20;99.90;;;;;;5054120;28;20041;-60
2022/08/18 09:44:59;;;;;;;4.13;2.35;;;23.20;99.90;;;;;;5070957;28;20461;-60
2022/08/18 09:47:25;;;;;;;3.60;2.00;;;23.20;99.90;;;;;;5070626;28;20380;-61
2022/08/18 09:50:03;;;;;;;4.75;2.58;;;23.40;99.90;;;;;;5059996;28;20119;-60
2022/08/18 09:52:34;;;;;;;5.72;2.33;;;23.50;99.90;;;;;;5061068;28;20522;-60
2022/08/18 09:55:06;;;;;;;5.97;2.30;;;23.70;99.90;;;;;;5067783;28;20040;-60
2022/08/18 09:57:36;;;;;;;4.78;2.10;;;23.90;99.90;;;;;;5070785;28;20036;-60
2022/08/18 10:00:02;;;;;;;2.95;1.90;;;24.00;99.90;;;;;;5056301;28;20136;-60
2022/08/18 10:02:27;;;;;;;1.98;1.60;;;24.00;99.90;;;;;;5058976;28;20123;-60
2022/08/18 10:05:11;;;;;;;3.42;1.80;;;23.90;99.90;;;;;;5071023;28;20041;-60
2022/08/18 10:07:39;;;;;;;2.97;1.85;;;23.80;99.90;;;;;;5070566;28;20047;-60
2022/08/18 10:10:38;;;;;;;3.08;2.20;;;23.80;99.90;;;;;;5056738;28;20056;-61
2022/08/18 10:13:36;;;;;;;4.43;2.08;;;23.80;99.90;;;;;;5071020;28;20024;-60
2022/08/18 10:16:29;;;;;;;3.20;2.00;;;24.00;99.90;;;;;;5070677;28;20410;-60
2022/08/18 10:19:17;;;;;;;5.55;2.22;;;24.10;99.90;;;;;;5068869;28;20418;-60
2022/08/18 10:22:03;;;;;;;2.10;1.60;;;24.10;99.90;;;;;;5070822;28;20072;-61
2022/08/18 10:24:34;;;;;;;2.40;1.50;;;24.20;99.90;;;;;;5070704;28;20052;-60
2022/08/18 10:27:34;;;;;;;2.05;1.38;;;24.20;99.90;;;;;;5070531;28;20051;-59
2022/08/18 10:30:00;;;;;;;3.35;1.60;;;24.20;99.90;;;;;;5064900;28;20049;-60
2022/08/18 10:32:42;;;;;;;3.15;1.60;;;24.00;99.90;;;;;;5074575;28;20102;-61
2022/08/18 10:35:36;;;;;;;2.53;1.38;;;24.00;99.90;;;;;;5074359;28;20466;-60
2022/08/18 10:38:13;;;;;;;1.70;1.30;;;24.00;99.90;;;;;;5073401;28;20059;-60
2022/08/18 10:41:05;;;;;;;1.40;1.30;;;24.00;99.90;;;;;;5064506;28;20040;-60
2022/08/18 10:43:47;;;;;;;2.55;1.42;;;24.00;99.90;;;;;;5074186;28;20533;-60
2022/08/18 10:46:40;;;;;;;2.40;1.30;;;24.10;99.90;;;;;;5073728;28;20120;-60
2022/08/18 10:49:12;;;;;;;1.95;1.30;;;24.10;99.90;;;;;;5057867;28;20128;-60
2022/08/18 10:52:02;;;;;;;1.40;1.20;;;24.10;99.90;;;;;;5070545;28;20513;-60
2022/08/18 10:54:50;;;;;;;3.47;1.50;;;24.20;99.90;;;;;;5074383;28;20072;-60
2022/08/18 10:57:44;;;;;;;1.65;1.30;;;24.40;99.90;;;;;;5072453;28;20115;-60
2022/08/18 11:00:13;;;;;;;2.45;1.63;;;24.60;99.90;;;;;;5061841;28;20032;-62
2022/08/18 11:03:17;;;;;;;2.05;1.23;;;24.40;99.90;;;;;;5073973;28;20107;-59
2022/08/18 11:05:43;;;;;;;4.75;1.65;;;24.40;99.90;;;;;;5073228;28;20049;-59
2022/08/18 11:08:16;;;;;;;3.58;1.45;;;24.70;99.90;;;;;;5073470;28;20051;-60
2022/08/18 11:10:49;;;;;;;2.70;1.40;;;24.80;99.90;;;;;;5060088;28;20069;-61
2022/08/18 11:13:59;;;;;;;1.67;1.20;;;25.00;99.90;;;;;;5074003;28;20036;-60
2022/08/18 11:16:51;;;;;;;2.72;1.38;;;25.20;99.90;;;;;;5073741;28;20040;-60
2022/08/18 11:19:19;;;;;;;2.72;1.27;;;25.20;99.90;;;;;;5066007;28;20049;-60
2022/08/18 11:21:50;;;;;;;3.42;1.55;;;25.30;99.90;;;;;;5066420;28;20063;-61
2022/08/18 11:24:19;;;;;;;2.22;1.10;;;25.20;99.90;;;;;;5073089;28;20136;-61
2022/08/18 11:26:55;;;;;;;2.35;1.50;;;25.30;99.90;;;;;;5064982;28;20040;-60
2022/08/18 11:29:33;;;;;;;3.00;1.58;;;25.20;99.90;;;;;;5061893;28;20057;-61
2022/08/18 11:32:01;;;;;;;3.22;1.48;;;25.10;99.90;;;;;;5073619;28;20032;-60
2022/08/18 11:34:52;;;;;;;3.58;1.58;;;25.00;99.90;;;;;;5073350;28;20079;-59
2022/08/18 11:37:42;;;;;;;4.60;1.40;;;24.90;99.90;;;;;;5072493;28;20453;-60
2022/08/18 11:40:20;;;;;;;2.72;1.58;;;25.10;99.90;;;;;;5064728;28;20111;-59
2022/08/18 11:43:01;;;;;;;3.33;1.38;;;25.10;99.90;;;;;;5073218;28;20036;-59
2022/08/18 11:45:47;;;;;;;3.58;1.50;;;25.20;99.90;;;;;;5040752;28;20367;-59
2022/08/18 11:48:43;;;;;;;4.07;1.60;;;25.20;99.90;;;;;;5069265;28;20047;-59
2022/08/18 11:51:22;;;;;;;3.08;1.63;;;25.30;99.90;;;;;;5059067;28;20036;-59
2022/08/18 11:53:48;;;;;;;4.15;1.70;;;25.20;99.90;;;;;;5072677;28;20096;-60
2022/08/18 11:56:19;;;;;;;3.35;1.40;;;25.20;99.90;;;;;;5072567;28;20120;-59
2022/08/18 11:58:58;;;;;;;2.58;1.40;;;25.10;99.90;;;;;;5069919;28;20115;-59
2022/08/18 12:01:49;;;;;;;4.05;1.75;;;25.10;99.90;;;;;;5053104;28;20045;-60
2022/08/18 12:04:20;;;;;;;3.13;1.50;;;25.00;99.90;;;;;;5049764;28;20457;-60
2022/08/18 12:06:55;;;;;;;3.45;1.13;;;25.10;99.90;;;;;;5071962;28;20044;-60
2022/08/18 12:09:43;;;;;;;2.85;1.30;;;25.10;99.90;;;;;;5063845;28;20187;-60
2022/08/18 12:12:29;;;;;;;2.95;1.58;;;25.00;99.90;;;;;;5052372;28;20037;-59
2022/08/18 12:15:00;;;;;;;2.80;1.25;;;25.10;99.90;;;;;;5064975;28;20048;-60
2022/08/18 12:17:27;;;;;;;1.77;1.30;;;25.10;99.90;;;;;;5071884;28;20441;-60
2022/08/18 12:19:53;;;;;;;2.88;1.63;;;25.20;99.90;;;;;;5060428;28;20044;-58
2022/08/18 12:22:22;;;;;;;3.45;1.65;;;25.30;99.90;;;;;;5069731;28;20413;-60
2022/08/18 12:24:49;;;;;;;2.85;1.60;;;25.30;99.90;;;;;;5071814;28;20048;-59
2022/08/18 12:27:19;;;;;;;3.25;1.40;;;25.40;99.90;;;;;;5071620;28;20497;-59
2022/08/18 12:29:45;;;;;;;4.38;1.83;;;25.40;99.90;;;;;;5066097;28;20052;-59
2022/08/18 12:32:11;;;;;;;3.08;1.80;;;25.30;99.90;;;;;;5072146;28;20044;-59
2022/08/18 12:34:37;;;;;;;3.00;1.75;;;25.30;99.90;;;;;;5071979;28;20036;-59
2022/08/18 12:37:05;;;;;;;3.15;1.55;;;25.10;99.90;;;;;;5071606;28;20052;-60
2022/08/18 12:39:31;;;;;;;2.15;1.40;;;25.20;99.90;;;;;;5063975;28;20064;-59
2022/08/18 12:41:57;;;;;;;2.05;1.35;;;25.40;99.90;;;;;;5071832;28;20040;-59
2022/08/18 12:44:23;;;;;;;2.35;1.50;;;25.50;99.90;;;;;;5058672;28;20438;-61
2022/08/18 12:46:49;;;;;;;2.05;1.52;;;25.60;99.90;;;;;;5070873;28;20085;-59
2022/08/18 12:49:17;;;;;;;3.13;1.75;;;25.70;99.90;;;;;;5065194;28;20131;-60
2022/08/18 12:51:44;;;;;;;5.22;1.88;;;25.60;99.90;;;;;;5068417;28;20043;-60
2022/08/18 12:54:10;;;;;;;2.13;1.50;;;25.80;99.90;;;;;;5071965;28;20032;-59
2022/08/18 12:56:35;;;;;;;4.82;1.92;;;25.90;99.90;;;;;;5071365;28;20509;-59
2022/08/18 12:59:04;;;;;;;2.67;1.83;;;25.90;99.90;;;;;;5066781;28;20401;-59
2022/08/18 13:01:30;;;;;;;2.95;1.48;;;25.90;99.90;;;;;;5065660;28;20052;-59
2022/08/18 13:03:56;;;;;;;2.55;1.40;;;25.90;99.90;;;;;;5037700;28;20032;-60
2022/08/18 13:06:22;;;;;;;2.72;1.52;;;26.10;99.90;;;;;;5063288;28;20044;-59
2022/08/18 13:08:49;;;;;;;3.67;1.40;;;26.20;99.90;;;;;;5068654;28;20032;-59
2022/08/18 13:11:17;;;;;;;2.95;1.40;;;26.20;99.90;;;;;;5061848;28;20037;-59
2022/08/18 13:13:43;;;;;;;1.52;1.42;;;26.30;99.90;;;;;;5071579;28;20082;-59
2022/08/18 13:16:10;;;;;;;3.55;1.20;;;26.20;99.90;;;;;;5069901;28;20047;-60
2022/08/18 13:18:38;;;;;;;2.55;1.30;;;26.20;99.90;;;;;;5070096;28;20033;-59
2022/08/18 13:21:05;;;;;;;1.45;1.30;;;26.20;99.90;;;;;;5045244;28;20105;-59
2022/08/18 13:23:31;;;;;;;2.40;1.48;;;26.20;99.90;;;;;;5071093;28;20115;-59